Morses Line, Vermont
Current Conditions -  °F | °C
As of 11:15 PM on Thursday 20 Nov 2014 (Local Time) from KFSO Reporting Station
Clear Clear  
Wind Chill: -7°   Ceiling: Unl
Heat Index: -4°   Visibility: 10mi
Dew Point: -11°   Wind: 5mph
Humidity: 56%   Direction: 240°WSW
Pressure: 29.82"   Gusts: 16mph
Location:  44.9656°N, 72.8975°W
Report Text: KFSO 210415Z AUTO 24004G14KT 10SM CLR M04/M11 A2982 RMK AO2 T10371113
Loading
Personal Weather Stations






























Interactive Weather Map New forecast layout! Learn more

10-Day Weather Forecast

Advertisements
Track Severe Weather on mobile